Time;durP1;ratioP1;P1;durP2;ratioP2;P2;SDS_P1;SDS_P2;PMS_P1;PMS_P2;Temp;Humidity;BMP_temperature;BMP_pressure;BME280_temperature;BME280_humidity;BME280_pressure;Samples;Min_cycle;Max_cycle;Signal;HPM_P1;HPM_P2
2024/02/12 00:00:19;;;;;;;13.70;13.30;;;8.40;99.90;;;;;;5050617;28;20452;-70
2024/02/12 00:02:46;;;;;;;12.47;12.17;;;8.40;99.90;;;;;;5050617;28;20989;-70
2024/02/12 00:05:14;;;;;;;11.90;11.60;;;8.40;99.90;;;;;;5050045;28;20573;-71
2024/02/12 00:07:42;;;;;;;11.20;11.00;;;8.40;99.90;;;;;;5049672;28;20466;-70
2024/02/12 00:10:12;;;;;;;10.60;10.40;;;8.40;99.90;;;;;;5047143;28;20469;-70
2024/02/12 00:12:39;;;;;;;10.70;10.50;;;8.40;99.90;;;;;;5051864;28;20920;-70
2024/02/12 00:15:08;;;;;;;10.27;10.07;;;8.30;99.90;;;;;;5043546;28;20590;-70
2024/02/12 00:17:36;;;;;;;10.07;9.87;;;8.30;99.90;;;;;;5054123;28;20460;-70
2024/02/12 00:20:06;;;;;;;10.00;9.80;;;8.40;99.90;;;;;;5053301;28;20462;-70
2024/02/12 00:22:34;;;;;;;9.47;9.27;;;8.30;99.90;;;;;;5052405;28;20479;-72
2024/02/12 00:25:03;;;;;;;9.30;9.10;;;8.40;99.90;;;;;;5046639;28;20795;-71
2024/02/12 00:27:32;;;;;;;8.90;8.80;;;8.40;99.90;;;;;;5047348;28;20468;-70
2024/02/12 00:29:59;;;;;;;8.90;8.80;;;8.40;99.90;;;;;;5049756;28;20916;-70
2024/02/12 00:32:27;;;;;;;8.10;8.00;;;8.40;99.90;;;;;;5050047;28;20464;-70
2024/02/12 00:34:56;;;;;;;7.37;7.27;;;8.40;99.90;;;;;;5049227;28;20475;-70
2024/02/12 00:37:25;;;;;;;6.90;6.80;;;8.40;99.90;;;;;;5049171;28;20572;-72
2024/02/12 00:39:52;;;;;;;7.40;7.30;;;8.40;99.90;;;;;;5045265;28;20891;-70
2024/02/12 00:42:19;;;;;;;10.73;10.53;;;8.40;99.90;;;;;;5044948;28;20582;-69
2024/02/12 00:44:48;;;;;;;12.70;12.40;;;8.40;99.90;;;;;;5051882;28;20542;-69
2024/02/12 00:47:15;;;;;;;13.50;13.10;;;8.40;99.90;;;;;;5050574;28;20495;-69
2024/02/12 00:49:43;;;;;;;14.00;13.60;;;8.40;99.90;;;;;;5053509;28;20555;-70
2024/02/12 00:52:11;;;;;;;13.57;13.17;;;8.30;99.90;;;;;;5047115;28;20468;-69
2024/02/12 00:54:40;;;;;;;13.80;13.40;;;8.40;99.90;;;;;;5047942;28;20477;-69
2024/02/12 00:57:07;;;;;;;14.10;13.70;;;8.30;99.90;;;;;;5044358;28;20474;-69
2024/02/12 00:59:38;;;;;;;14.10;13.70;;;8.30;99.90;;;;;;5044974;28;20484;-72
2024/02/12 01:02:08;;;;;;;14.20;13.80;;;8.20;99.90;;;;;;5051502;28;20545;-69
2024/02/12 01:04:36;;;;;;;14.10;13.70;;;8.30;99.90;;;;;;5056286;28;20538;-70
2024/02/12 01:07:03;;;;;;;13.37;13.03;;;8.30;99.90;;;;;;5056181;28;20819;-70
2024/02/12 01:09:30;;;;;;;14.30;13.90;;;8.40;99.90;;;;;;5053132;28;20542;-71
2024/02/12 01:11:59;;;;;;;13.90;13.50;;;8.30;99.90;;;;;;5054859;28;20479;-69
2024/02/12 01:14:28;;;;;;;13.33;13.03;;;8.40;99.90;;;;;;5049123;28;20465;-71
2024/02/12 01:16:55;;;;;;;13.60;13.20;;;8.30;99.90;;;;;;5050505;28;20976;-70
2024/02/12 01:19:24;;;;;;;13.77;13.37;;;8.30;99.90;;;;;;5051593;28;20491;-70
2024/02/12 01:21:51;;;;;;;14.00;13.60;;;8.30;99.90;;;;;;5052608;28;20468;-70
2024/02/12 01:24:18;;;;;;;14.20;13.80;;;8.30;99.90;;;;;;5058611;28;20553;-69
2024/02/12 01:26:47;;;;;;;13.20;12.90;;;8.20;99.90;;;;;;5050333;28;20860;-70
2024/02/12 01:29:14;;;;;;;13.50;13.10;;;8.20;99.90;;;;;;5050968;28;20449;-70
2024/02/12 01:31:40;;;;;;;13.00;12.70;;;8.10;99.90;;;;;;5051081;28;20461;-70
2024/02/12 01:34:07;;;;;;;13.60;13.20;;;8.20;99.90;;;;;;5050001;28;20478;-70
2024/02/12 01:36:36;;;;;;;13.53;13.13;;;8.20;99.90;;;;;;5052997;28;20529;-70
2024/02/12 01:39:04;;;;;;;13.60;13.20;;;8.20;99.90;;;;;;5050836;28;20465;-73
2024/02/12 01:41:32;;;;;;;13.47;13.07;;;8.10;99.90;;;;;;5051230;28;20878;-70
2024/02/12 01:43:59;;;;;;;13.33;13.03;;;8.20;99.90;;;;;;5050706;28;21025;-70
2024/02/12 01:46:25;;;;;;;13.33;13.03;;;8.20;99.90;;;;;;5047243;28;20559;-72
2024/02/12 01:48:53;;;;;;;12.73;12.43;;;8.20;99.90;;;;;;5052206;28;20586;-69
2024/02/12 01:51:21;;;;;;;13.67;13.27;;;8.20;99.90;;;;;;5047582;28;20576;-70
2024/02/12 01:53:51;;;;;;;12.90;12.60;;;8.20;99.90;;;;;;5058560;28;20575;-70
2024/02/12 01:56:20;;;;;;;12.50;12.20;;;8.30;99.90;;;;;;5051106;28;20468;-70
2024/02/12 01:58:47;;;;;;;12.87;12.57;;;8.20;99.90;;;;;;5050255;28;21340;-70
2024/02/12 02:01:15;;;;;;;13.03;12.73;;;8.30;99.90;;;;;;5052384;28;20464;-70
2024/02/12 02:03:44;;;;;;;12.80;12.50;;;8.30;99.90;;;;;;5048479;28;20524;-69
2024/02/12 02:06:16;;;;;;;12.43;12.13;;;8.30;99.90;;;;;;5056297;28;20468;-73
2024/02/12 02:08:44;;;;;;;12.27;11.97;;;8.30;99.90;;;;;;5052881;28;21021;-70
2024/02/12 02:11:13;;;;;;;11.77;11.47;;;8.30;99.90;;;;;;5046441;28;20475;-71
2024/02/12 02:13:42;;;;;;;11.90;11.60;;;8.30;99.90;;;;;;5053343;28;20462;-71
2024/02/12 02:16:09;;;;;;;12.60;12.30;;;8.30;99.90;;;;;;5049612;28;20462;-70
2024/02/12 02:18:36;;;;;;;12.03;11.73;;;8.30;99.90;;;;;;5057269;28;20827;-69
2024/02/12 02:21:03;;;;;;;11.70;11.40;;;8.30;99.90;;;;;;5049883;28;20460;-70
2024/02/12 02:23:30;;;;;;;12.40;12.10;;;8.30;99.90;;;;;;5046851;28;20994;-70
2024/02/12 02:25:59;;;;;;;11.77;11.47;;;8.30;99.90;;;;;;5050325;28;20631;-70
2024/02/12 02:28:26;;;;;;;11.97;11.67;;;8.20;99.90;;;;;;5050742;28;20468;-70
2024/02/12 02:30:54;;;;;;;11.57;11.27;;;8.20;99.90;;;;;;5054888;28;20535;-70
2024/02/12 02:33:22;;;;;;;12.10;11.80;;;8.20;99.90;;;;;;5056015;28;20866;-70
2024/02/12 02:35:49;;;;;;;11.73;11.43;;;8.30;99.90;;;;;;5052135;28;20493;-70
2024/02/12 02:38:17;;;;;;;12.27;11.97;;;8.20;99.90;;;;;;5054832;28;20770;-70
2024/02/12 02:40:44;;;;;;;12.93;12.63;;;8.10;99.90;;;;;;5045984;28;20475;-72
2024/02/12 02:43:14;;;;;;;13.40;13.10;;;8.20;99.90;;;;;;5046114;28;20502;-70
2024/02/12 02:45:41;;;;;;;13.70;13.30;;;8.10;99.90;;;;;;5058258;28;20509;-72
2024/02/12 02:48:10;;;;;;;13.80;13.40;;;8.10;99.90;;;;;;5050412;28;20464;-70
2024/02/12 02:50:37;;;;;;;13.00;12.70;;;8.00;99.90;;;;;;5053537;28;20463;-70
2024/02/12 02:53:04;;;;;;;13.43;13.13;;;7.80;99.90;;;;;;5049017;28;20487;-70
2024/02/12 02:55:31;;;;;;;13.57;13.20;;;7.80;99.90;;;;;;5061318;28;20463;-72
2024/02/12 02:58:01;;;;;;;13.83;13.43;;;7.80;99.90;;;;;;5053685;28;21006;-70
2024/02/12 03:00:31;;;;;;;12.23;11.93;;;7.80;99.90;;;;;;5050162;28;20467;-71
2024/02/12 03:03:00;;;;;;;12.70;12.40;;;7.80;99.90;;;;;;5050549;28;20480;-69
2024/02/12 03:05:27;;;;;;;12.80;12.50;;;7.90;99.90;;;;;;5045905;28;20468;-72
2024/02/12 03:07:54;;;;;;;12.87;12.57;;;7.90;99.90;;;;;;5048411;28;20459;-71
2024/02/12 03:10:21;;;;;;;13.13;12.83;;;7.90;99.90;;;;;;5051262;28;21341;-70
2024/02/12 03:12:49;;;;;;;12.30;12.00;;;8.00;99.90;;;;;;5053725;28;20679;-72
2024/02/12 03:15:15;;;;;;;12.57;12.27;;;8.00;99.90;;;;;;5049526;28;20971;-71
2024/02/12 03:17:45;;;;;;;13.43;13.13;;;8.00;99.90;;;;;;5046012;28;20475;-71
2024/02/12 03:20:12;;;;;;;12.87;12.57;;;8.10;99.90;;;;;;5047855;28;20581;-70
2024/02/12 03:22:40;;;;;;;12.80;12.50;;;8.00;99.90;;;;;;5049532;28;20459;-70
2024/02/12 03:25:09;;;;;;;13.20;12.90;;;8.00;99.90;;;;;;5053893;28;20502;-70
2024/02/12 03:27:36;;;;;;;13.80;13.40;;;8.10;99.90;;;;;;5047928;28;20471;-72
2024/02/12 03:30:05;;;;;;;13.37;13.07;;;8.00;99.90;;;;;;5046846;28;20475;-70
2024/02/12 03:32:32;;;;;;;12.87;12.57;;;8.10;99.90;;;;;;5048215;28;20487;-74
2024/02/12 03:35:00;;;;;;;12.37;12.07;;;8.10;99.90;;;;;;5050856;28;21015;-70
2024/02/12 03:37:27;;;;;;;12.20;11.90;;;8.00;99.90;;;;;;5055433;28;20455;-72
2024/02/12 03:39:54;;;;;;;12.47;12.17;;;8.00;99.90;;;;;;5050985;28;21295;-72
2024/02/12 03:42:26;;;;;;;11.10;10.90;;;8.00;99.90;;;;;;5058916;28;20514;-72
2024/02/12 03:44:54;;;;;;;10.97;10.77;;;8.10;99.90;;;;;;5052591;28;20843;-72
2024/02/12 03:47:27;;;;;;;10.43;10.23;;;8.10;99.90;;;;;;5056635;28;20455;-70
2024/02/12 04:00:56;;;;;;;8.20;8.10;;;8.00;99.90;;;;;;5056648;28;21001;-71
2024/02/12 04:03:23;;;;;;;7.30;7.20;;;8.00;99.90;;;;;;5048192;28;20495;-70
2024/02/12 04:05:50;;;;;;;7.27;7.17;;;8.00;99.90;;;;;;5055585;28;20460;-70
2024/02/12 04:08:19;;;;;;;7.53;7.43;;;8.10;99.90;;;;;;5050718;28;20910;-72
2024/02/12 04:10:47;;;;;;;7.30;7.20;;;8.10;99.90;;;;;;5051298;28;20460;-71
2024/02/12 04:13:14;;;;;;;6.93;6.83;;;8.10;99.90;;;;;;5049615;28;20464;-70
2024/02/12 04:15:41;;;;;;;6.57;6.47;;;8.10;99.90;;;;;;5058270;28;20473;-71
2024/02/12 04:18:09;;;;;;;6.80;6.70;;;8.20;99.90;;;;;;5050998;28;20456;-70
2024/02/12 04:20:37;;;;;;;6.80;6.70;;;8.20;99.90;;;;;;5051762;28;20459;-70
2024/02/12 04:23:06;;;;;;;6.40;6.30;;;8.20;99.90;;;;;;5049051;28;20467;-70
2024/02/12 04:25:35;;;;;;;6.50;6.40;;;8.20;99.90;;;;;;5051486;28;20554;-70
2024/02/12 04:28:04;;;;;;;6.20;6.10;;;8.10;99.90;;;;;;5057746;28;20460;-70
2024/02/12 04:30:31;;;;;;;5.80;5.70;;;8.20;99.90;;;;;;5053949;28;20461;-71
2024/02/12 04:33:00;;;;;;;5.73;5.63;;;8.10;99.90;;;;;;5053768;28;20978;-70
2024/02/12 04:35:27;;;;;;;5.80;5.70;;;8.10;99.90;;;;;;5062067;28;20454;-70
2024/02/12 04:37:55;;;;;;;5.73;5.63;;;8.10;99.90;;;;;;5048251;28;20468;-70
2024/02/12 04:40:24;;;;;;;5.63;5.53;;;8.20;99.90;;;;;;5051168;28;20454;-70
2024/02/12 04:42:54;;;;;;;5.40;5.30;;;8.10;99.90;;;;;;5054767;28;20460;-70
2024/02/12 04:45:21;;;;;;;5.87;5.77;;;8.10;99.90;;;;;;5052227;28;20492;-71
2024/02/12 04:47:51;;;;;;;5.60;5.50;;;8.20;99.90;;;;;;5055699;28;21039;-70
2024/02/12 04:50:19;;;;;;;5.40;5.30;;;8.20;99.90;;;;;;5050274;28;20476;-70
2024/02/12 04:52:46;;;;;;;5.87;5.77;;;8.20;99.90;;;;;;5054300;28;20468;-70
2024/02/12 04:55:15;;;;;;;6.17;6.07;;;8.10;99.90;;;;;;5056825;28;20468;-70
2024/02/12 04:57:42;;;;;;;5.70;5.60;;;8.20;99.90;;;;;;5046899;28;20473;-72
2024/02/12 05:00:11;;;;;;;6.30;6.20;;;8.20;99.90;;;;;;5057435;28;20876;-72
2024/02/12 05:02:40;;;;;;;6.70;6.60;;;8.20;99.90;;;;;;5053133;28;20481;-71
2024/02/12 05:05:08;;;;;;;6.70;6.60;;;8.20;99.90;;;;;;5049206;28;21048;-70
2024/02/12 05:07:35;;;;;;;6.57;6.47;;;8.20;99.90;;;;;;5047922;28;20506;-71
2024/02/12 05:10:02;;;;;;;5.80;5.70;;;8.20;99.90;;;;;;5051438;28;20473;-69
2024/02/12 05:12:30;;;;;;;5.87;5.77;;;8.10;99.90;;;;;;5051242;28;20464;-72
2024/02/12 05:14:57;;;;;;;5.80;5.70;;;8.10;99.90;;;;;;5052119;28;20473;-71
2024/02/12 05:17:31;;;;;;;6.13;6.03;;;8.10;99.90;;;;;;5051261;28;20453;-72
2024/02/12 05:22:44;;;;;;;5.60;5.50;;;8.00;99.90;;;;;;5053915;28;20458;-70
2024/02/12 05:25:11;;;;;;;6.23;6.13;;;7.90;99.90;;;;;;5058943;28;20482;-71
2024/02/12 05:27:38;;;;;;;5.57;5.47;;;7.80;99.90;;;;;;5049227;28;20461;-70
2024/02/12 05:30:06;;;;;;;6.00;5.90;;;7.70;99.90;;;;;;5054061;28;20459;-70
2024/02/12 05:32:36;;;;;;;5.50;5.40;;;7.70;99.90;;;;;;5054597;28;20467;-70
2024/02/12 05:35:03;;;;;;;5.57;5.47;;;7.60;99.90;;;;;;5052478;28;20940;-70
2024/02/12 05:37:30;;;;;;;6.20;6.10;;;7.60;99.90;;;;;;5045323;28;20542;-71
2024/02/12 05:39:59;;;;;;;6.17;6.07;;;7.50;99.90;;;;;;5058835;28;21021;-70
2024/02/12 05:42:27;;;;;;;6.00;5.90;;;7.50;99.90;;;;;;5047749;28;20526;-70
2024/02/12 05:44:55;;;;;;;5.67;5.57;;;7.50;99.90;;;;;;5051582;28;20553;-70
2024/02/12 05:47:22;;;;;;;5.33;5.23;;;7.50;99.90;;;;;;5053347;28;20464;-70
2024/02/12 05:49:51;;;;;;;5.60;5.50;;;7.50;99.90;;;;;;5049981;28;20472;-70
2024/02/12 05:52:19;;;;;;;5.50;5.40;;;7.40;99.90;;;;;;5047728;28;20591;-69
2024/02/12 05:54:46;;;;;;;5.20;5.10;;;7.50;99.90;;;;;;5049257;28;20465;-69
2024/02/12 05:57:13;;;;;;;5.40;5.30;;;7.50;99.90;;;;;;5049680;28;20468;-70
2024/02/12 05:59:40;;;;;;;5.50;5.40;;;7.50;99.90;;;;;;5052621;28;21088;-70
2024/02/12 06:02:07;;;;;;;5.37;5.27;;;7.50;99.90;;;;;;5048718;28;21022;-70
2024/02/12 06:04:34;;;;;;;5.30;5.20;;;7.50;99.90;;;;;;5048685;28;20480;-70
2024/02/12 06:07:03;;;;;;;6.03;5.93;;;7.50;99.90;;;;;;5059390;28;20452;-72
2024/02/12 06:09:30;;;;;;;5.97;5.87;;;7.50;99.90;;;;;;5049524;28;20487;-70
2024/02/12 06:11:58;;;;;;;5.70;5.60;;;7.50;99.90;;;;;;5051736;28;20488;-69
2024/02/12 06:14:25;;;;;;;5.90;5.80;;;7.60;99.90;;;;;;5050703;28;20810;-70
2024/02/12 06:16:54;;;;;;;5.40;5.30;;;7.50;99.90;;;;;;5052074;28;20458;-68
2024/02/12 06:19:21;;;;;;;5.70;5.60;;;7.50;99.90;;;;;;5056382;28;20460;-72
2024/02/12 06:21:49;;;;;;;5.27;5.17;;;7.50;99.90;;;;;;5050497;28;20477;-71
2024/02/12 06:24:18;;;;;;;5.07;4.97;;;7.50;99.90;;;;;;5051471;28;20948;-71
2024/02/12 06:26:45;;;;;;;4.60;4.60;;;7.50;99.90;;;;;;5057348;28;20468;-69
2024/02/12 06:29:12;;;;;;;5.07;4.97;;;7.50;99.90;;;;;;5052972;28;20823;-71
2024/02/12 06:31:43;;;;;;;5.20;5.10;;;7.50;99.90;;;;;;5045226;28;20471;-70
2024/02/12 06:34:11;;;;;;;5.07;5.03;;;7.50;99.90;;;;;;5049233;28;20470;-70
2024/02/12 06:36:38;;;;;;;4.50;4.50;;;7.50;99.90;;;;;;5047493;28;20512;-71
2024/02/12 06:39:05;;;;;;;5.40;5.30;;;7.50;99.90;;;;;;5047545;28;20458;-69
2024/02/12 06:41:33;;;;;;;5.97;5.87;;;7.50;99.90;;;;;;5049527;28;20455;-70
2024/02/12 06:44:01;;;;;;;5.63;5.53;;;7.50;99.90;;;;;;5045209;28;20499;-70
2024/02/12 06:46:28;;;;;;;4.67;4.67;;;7.50;99.90;;;;;;5058037;28;20472;-70
2024/02/12 06:48:55;;;;;;;5.20;5.10;;;7.50;99.90;;;;;;5058121;28;20967;-70
2024/02/12 06:51:22;;;;;;;5.50;5.40;;;7.50;99.90;;;;;;5050739;28;20475;-70
2024/02/12 06:53:49;;;;;;;4.83;4.83;;;7.60;99.90;;;;;;5043880;28;20823;-70
2024/02/12 06:56:16;;;;;;;5.13;5.10;;;7.60;99.90;;;;;;5052130;28;20466;-69
2024/02/12 06:58:44;;;;;;;4.70;4.70;;;7.60;99.90;;;;;;5049424;28;20544;-70
2024/02/12 07:01:13;;;;;;;5.30;5.20;;;7.60;99.90;;;;;;5048939;28;20456;-70
2024/02/12 07:03:44;;;;;;;4.63;4.63;;;7.60;99.90;;;;;;5051342;28;20471;-69
2024/02/12 07:06:12;;;;;;;4.83;4.83;;;7.60;99.90;;;;;;5046043;28;20463;-70
2024/02/12 07:08:41;;;;;;;5.37;5.27;;;7.70;99.90;;;;;;5048135;28;20460;-70
2024/02/12 07:11:08;;;;;;;4.87;4.87;;;7.70;99.90;;;;;;5048646;28;20460;-70
2024/02/12 07:13:35;;;;;;;5.27;5.17;;;7.60;99.90;;;;;;5055365;28;20496;-70
2024/02/12 07:16:05;;;;;;;5.23;5.13;;;7.70;99.90;;;;;;5057150;28;20467;-70
2024/02/12 07:18:32;;;;;;;5.27;5.17;;;7.70;99.90;;;;;;5055060;28;20609;-71
2024/02/12 07:20:59;;;;;;;5.40;5.30;;;7.70;99.90;;;;;;5052523;28;20528;-70
2024/02/12 07:23:26;;;;;;;4.97;4.97;;;7.70;99.90;;;;;;5052712;28;20469;-70
2024/02/12 07:25:53;;;;;;;5.40;5.30;;;7.80;99.90;;;;;;5049404;28;21015;-70
2024/02/12 07:28:21;;;;;;;4.83;4.83;;;7.80;99.90;;;;;;5057545;28;20467;-70
2024/02/12 07:30:50;;;;;;;4.73;4.73;;;7.80;99.90;;;;;;5052034;28;20981;-69
2024/02/12 07:33:19;;;;;;;4.73;4.73;;;7.80;99.90;;;;;;5053384;28;21457;-72
2024/02/12 07:35:46;;;;;;;4.60;4.60;;;7.80;99.90;;;;;;5053307;28;20849;-72
2024/02/12 07:38:13;;;;;;;5.27;5.17;;;7.80;99.90;;;;;;5050447;28;20962;-72
2024/02/12 07:40:40;;;;;;;5.27;5.17;;;7.80;99.90;;;;;;5052369;28;20448;-69
2024/02/12 07:43:07;;;;;;;5.20;5.10;;;7.80;99.90;;;;;;5050928;28;20489;-71
2024/02/12 07:45:34;;;;;;;4.50;4.50;;;7.90;99.90;;;;;;5059578;28;20870;-71
2024/02/12 07:48:02;;;;;;;5.47;5.37;;;7.90;99.90;;;;;;5051625;28;20496;-70
2024/02/12 07:50:31;;;;;;;5.47;5.37;;;7.90;99.90;;;;;;5048692;28;20554;-71
2024/02/12 07:52:58;;;;;;;6.00;5.90;;;8.00;99.90;;;;;;5048135;28;20978;-69
2024/02/12 07:55:27;;;;;;;6.30;6.20;;;8.00;99.90;;;;;;5053932;28;20829;-69
2024/02/12 07:57:54;;;;;;;5.50;5.40;;;8.10;99.90;;;;;;5053218;28;20944;-72
2024/02/12 08:00:22;;;;;;;6.13;6.03;;;8.10;99.90;;;;;;5050605;28;20992;-69
2024/02/12 08:02:49;;;;;;;6.13;6.03;;;8.10;99.90;;;;;;5056323;28;20560;-70
2024/02/12 08:05:16;;;;;;;5.23;5.13;;;8.30;99.90;;;;;;5051391;28;20584;-70
2024/02/12 08:07:44;;;;;;;6.57;6.47;;;8.20;99.90;;;;;;5047286;28;20825;-70
2024/02/12 08:10:13;;;;;;;5.20;5.10;;;8.30;99.90;;;;;;5046248;28;20713;-70
2024/02/12 08:12:41;;;;;;;7.10;7.00;;;8.10;99.90;;;;;;5058662;28;21023;-69
2024/02/12 08:15:09;;;;;;;6.33;6.23;;;8.20;99.90;;;;;;5057025;28;20452;-70
2024/02/12 08:17:37;;;;;;;7.50;7.40;;;8.20;99.90;;;;;;5048877;28;20466;-70
2024/02/12 08:20:05;;;;;;;7.20;7.10;;;8.30;99.90;;;;;;5052645;28;20472;-69
2024/02/12 08:22:31;;;;;;;7.07;6.97;;;8.40;99.90;;;;;;5051605;28;21260;-70
2024/02/12 08:25:02;;;;;;;6.53;6.43;;;8.40;99.90;;;;;;5047992;28;20483;-70
2024/02/12 08:27:29;;;;;;;7.20;7.10;;;8.40;99.90;;;;;;5046791;28;20916;-70
2024/02/12 08:29:56;;;;;;;6.93;6.83;;;8.50;99.90;;;;;;5033609;28;20461;-69
2024/02/12 08:32:23;;;;;;;6.60;6.50;;;8.60;99.90;;;;;;5046861;28;20508;-70
2024/02/12 08:34:52;;;;;;;6.70;6.60;;;8.50;99.90;;;;;;5049803;28;20477;-70
2024/02/12 08:37:18;;;;;;;8.07;7.97;;;8.40;99.90;;;;;;5047279;28;21787;-70
2024/02/12 08:39:45;;;;;;;8.20;8.10;;;8.50;99.90;;;;;;5051666;28;20468;-70
2024/02/12 08:42:14;;;;;;;7.67;7.57;;;8.60;99.90;;;;;;5048713;28;20469;-72
2024/02/12 08:44:41;;;;;;;8.37;8.27;;;8.60;99.90;;;;;;5047055;28;20840;-70
2024/02/12 08:47:08;;;;;;;7.73;7.63;;;8.70;99.90;;;;;;5046551;28;20624;-71
2024/02/12 08:49:35;;;;;;;7.47;7.37;;;8.70;99.90;;;;;;5048357;28;20838;-70
2024/02/12 08:52:02;;;;;;;7.93;7.83;;;8.60;99.90;;;;;;5040197;28;21147;-70
2024/02/12 08:54:30;;;;;;;8.13;8.03;;;8.60;99.90;;;;;;5046591;28;20484;-70
2024/02/12 08:56:59;;;;;;;8.10;8.00;;;8.60;99.90;;;;;;5052371;28;20831;-71
2024/02/12 08:59:27;;;;;;;8.40;8.30;;;8.80;99.90;;;;;;5047354;28;20524;-72
2024/02/12 09:01:54;;;;;;;9.00;8.80;;;8.90;99.90;;;;;;5045393;28;20590;-70
2024/02/12 09:04:21;;;;;;;8.90;8.70;;;8.90;99.90;;;;;;5052336;28;20460;-72
2024/02/12 09:06:49;;;;;;;9.30;9.10;;;8.90;99.90;;;;;;5049936;28;20967;-71
2024/02/12 09:09:16;;;;;;;9.03;8.83;;;8.90;99.90;;;;;;5047883;28;20465;-70
2024/02/12 09:11:43;;;;;;;9.30;9.10;;;8.80;99.90;;;;;;5050907;28;20888;-70
2024/02/12 09:14:11;;;;;;;8.97;8.77;;;8.70;99.90;;;;;;5046875;28;20461;-70
2024/02/12 09:16:40;;;;;;;9.07;8.87;;;8.60;99.90;;;;;;5048401;28;20546;-69
2024/02/12 09:19:07;;;;;;;9.20;9.00;;;8.60;99.90;;;;;;5047957;28;20473;-70
2024/02/12 09:21:34;;;;;;;9.07;8.87;;;8.50;99.90;;;;;;5042292;28;20868;-70
2024/02/12 09:24:02;;;;;;;8.43;8.33;;;8.70;99.90;;;;;;5037357;28;20463;-69
2024/02/12 09:26:29;;;;;;;9.60;9.40;;;8.80;99.90;;;;;;5036151;28;20490;-70
2024/02/12 09:28:56;;;;;;;9.70;9.50;;;9.10;99.90;;;;;;5047698;28;20468;-69
2024/02/12 09:31:26;;;;;;;9.43;9.23;;;9.30;99.90;;;;;;5040831;28;20452;-70
2024/02/12 09:33:55;;;;;;;10.70;10.43;;;9.40;99.90;;;;;;5048082;28;21064;-70
2024/02/12 09:36:24;;;;;;;10.47;10.27;;;9.60;99.90;;;;;;5041568;28;20466;-70
2024/02/12 09:38:52;;;;;;;10.50;10.30;;;9.70;99.90;;;;;;5047280;28;20471;-71
2024/02/12 09:41:26;;;;;;;10.47;10.27;;;9.90;99.90;;;;;;5044835;28;20557;-71
2024/02/12 09:43:54;;;;;;;11.03;10.73;;;10.10;99.90;;;;;;5039075;28;21496;-70
2024/02/12 09:46:22;;;;;;;12.00;11.70;;;10.40;99.90;;;;;;5046415;28;20488;-70
2024/02/12 09:48:50;;;;;;;11.50;11.20;;;10.50;99.90;;;;;;5045982;28;20954;-69
2024/02/12 09:51:20;;;;;;;11.63;11.33;;;10.60;99.90;;;;;;5046688;28;20476;-69
2024/02/12 09:53:51;;;;;;;11.53;11.23;;;10.50;99.90;;;;;;5043071;28;20554;-70
2024/02/12 09:56:22;;;;;;;12.37;11.97;;;10.30;99.90;;;;;;5046662;28;20469;-71
2024/02/12 09:58:48;;;;;;;12.23;11.83;;;10.20;99.90;;;;;;5037469;28;20492;-71
2024/02/12 10:01:15;;;;;;;12.00;11.70;;;10.10;99.90;;;;;;5046181;28;20471;-71
2024/02/12 10:03:43;;;;;;;11.53;11.23;;;10.30;99.90;;;;;;5046083;28;20468;-71
2024/02/12 10:06:12;;;;;;;12.00;11.70;;;10.30;99.90;;;;;;5045749;28;22557;-70
2024/02/12 10:08:41;;;;;;;12.13;11.83;;;10.40;99.90;;;;;;5039630;28;20470;-70
2024/02/12 10:11:08;;;;;;;12.07;11.77;;;10.40;99.90;;;;;;5039863;28;20466;-71
2024/02/12 10:13:35;;;;;;;12.03;11.73;;;10.40;99.90;;;;;;5044704;28;20542;-70
2024/02/12 10:16:04;;;;;;;12.40;12.00;;;10.40;99.90;;;;;;5039554;28;20466;-71
2024/02/12 10:18:32;;;;;;;12.67;12.27;;;10.40;99.90;;;;;;5042228;28;20862;-69
2024/02/12 10:21:01;;;;;;;12.60;12.20;;;10.40;99.90;;;;;;5046450;28;20500;-71
2024/02/12 10:23:28;;;;;;;12.60;12.20;;;10.30;99.90;;;;;;5042460;28;20565;-71
2024/02/12 10:25:57;;;;;;;12.33;11.93;;;10.30;99.90;;;;;;5038524;28;20495;-71
2024/02/12 10:28:25;;;;;;;12.60;12.20;;;10.40;99.90;;;;;;5038213;28;20806;-71
2024/02/12 10:30:52;;;;;;;12.57;12.17;;;10.40;99.90;;;;;;5040082;28;21029;-70
2024/02/12 10:33:20;;;;;;;12.63;12.23;;;10.20;99.90;;;;;;5044125;28;20473;-70
2024/02/12 10:35:51;;;;;;;12.40;12.00;;;10.20;99.90;;;;;;5046038;28;20456;-71
2024/02/12 10:38:18;;;;;;;12.97;12.57;;;10.30;99.90;;;;;;5044411;28;21161;-70
2024/02/12 10:40:53;;;;;;;12.80;12.40;;;10.30;99.90;;;;;;5045094;28;20466;-71
2024/02/12 10:43:26;;;;;;;12.93;12.53;;;10.30;99.90;;;;;;5044046;28;20467;-70
2024/02/12 10:45:53;;;;;;;12.50;12.10;;;10.30;99.90;;;;;;5037768;28;20587;-70
2024/02/12 10:48:21;;;;;;;13.03;12.63;;;10.40;99.90;;;;;;5044040;28;20468;-71
2024/02/12 10:50:49;;;;;;;13.00;12.60;;;10.40;99.90;;;;;;5042932;28;20466;-71
2024/02/12 10:53:17;;;;;;;12.80;12.40;;;10.30;99.90;;;;;;5046081;28;21002;-70
2024/02/12 10:55:44;;;;;;;14.10;13.60;;;10.40;99.90;;;;;;5041172;28;20848;-71
2024/02/12 10:58:12;;;;;;;13.40;13.00;;;10.30;99.90;;;;;;5039614;28;20820;-71
2024/02/12 11:00:40;;;;;;;14.40;13.90;;;10.30;99.90;;;;;;5040082;28;20517;-71
2024/02/12 11:03:09;;;;;;;13.70;13.27;;;10.20;99.90;;;;;;5044180;28;20488;-71
2024/02/12 11:05:42;;;;;;;13.57;13.17;;;10.20;99.90;;;;;;5047059;28;20513;-70
2024/02/12 11:08:18;;;;;;;13.83;13.33;;;10.10;99.90;;;;;;5045650;28;20465;-70
2024/02/12 11:10:49;;;;;;;14.20;13.70;;;10.50;99.90;;;;;;5042642;28;20813;-71
2024/02/12 11:13:19;;;;;;;13.80;13.30;;;10.80;99.90;;;;;;5037490;28;21157;-70
2024/02/12 11:15:50;;;;;;;14.10;13.60;;;10.80;99.90;;;;;;5045866;28;20635;-70
2024/02/12 11:18:17;;;;;;;13.70;13.30;;;10.70;99.90;;;;;;5039812;28;20469;-70
2024/02/12 11:20:49;;;;;;;14.10;13.60;;;10.80;99.90;;;;;;5047640;28;20611;-72
2024/02/12 11:23:23;;;;;;;13.83;13.33;;;11.00;99.90;;;;;;5044419;28;20517;-70
2024/02/12 11:25:50;;;;;;;13.50;13.10;;;11.00;99.90;;;;;;5041651;28;20509;-71
2024/02/12 11:28:19;;;;;;;13.70;13.30;;;10.90;99.90;;;;;;5043812;28;20616;-71
2024/02/12 11:30:50;;;;;;;13.10;12.70;;;11.00;99.90;;;;;;5037410;28;20508;-69
2024/02/12 11:33:17;;;;;;;13.77;13.33;;;11.00;99.90;;;;;;5039627;28;20474;-70
2024/02/12 11:35:43;;;;;;;14.27;13.77;;;10.90;99.90;;;;;;5038219;28;20477;-72
2024/02/12 11:38:13;;;;;;;14.30;13.80;;;10.90;99.90;;;;;;5045741;28;20449;-71
2024/02/12 11:40:41;;;;;;;14.37;13.87;;;10.70;99.90;;;;;;5043834;28;20647;-70
2024/02/12 11:43:08;;;;;;;14.53;14.03;;;10.60;99.90;;;;;;5048480;28;22802;-70
2024/02/12 11:45:35;;;;;;;14.47;13.97;;;10.60;99.90;;;;;;5038702;28;20513;-70
2024/02/12 11:48:09;;;;;;;14.60;14.10;;;10.50;99.90;;;;;;5044668;28;20464;-71
2024/02/12 11:50:37;;;;;;;14.60;14.10;;;10.40;99.90;;;;;;5046856;28;20830;-70
2024/02/12 11:53:05;;;;;;;14.30;13.80;;;10.40;99.90;;;;;;5041205;28;20464;-71
2024/02/12 11:55:33;;;;;;;14.30;13.80;;;10.50;99.90;;;;;;5044195;28;20481;-71
2024/02/12 11:58:00;;;;;;;14.53;14.03;;;10.80;99.90;;;;;;5042446;28;20510;-70
2024/02/12 12:00:30;;;;;;;14.10;13.60;;;10.90;99.90;;;;;;5049536;28;20468;-71
2024/02/12 12:02:57;;;;;;;14.50;14.00;;;11.10;99.90;;;;;;5049800;28;20487;-71
2024/02/12 12:05:27;;;;;;;14.13;13.63;;;11.00;99.90;;;;;;5045847;28;21131;-71
2024/02/12 12:07:55;;;;;;;14.20;13.70;;;11.00;99.90;;;;;;5047682;28;20465;-69
2024/02/12 12:10:24;;;;;;;14.00;13.50;;;11.00;99.90;;;;;;5043480;28;20496;-71
2024/02/12 12:12:51;;;;;;;14.00;13.50;;;11.10;99.90;;;;;;5047673;28;20853;-71
2024/02/12 12:15:19;;;;;;;14.03;13.53;;;11.30;99.90;;;;;;5049006;28;20469;-71
2024/02/12 12:17:47;;;;;;;14.07;13.57;;;11.40;99.90;;;;;;5044602;28;20459;-70
2024/02/12 12:20:15;;;;;;;14.47;13.97;;;11.70;99.90;;;;;;5046376;28;20465;-69
2024/02/12 12:22:44;;;;;;;14.57;14.07;;;11.80;99.90;;;;;;5050610;28;20544;-70
2024/02/12 12:25:12;;;;;;;14.33;13.83;;;12.00;99.90;;;;;;5033927;28;20453;-71
2024/02/12 12:27:39;;;;;;;14.43;13.93;;;12.20;99.90;;;;;;5038097;28;20642;-71
2024/02/12 12:30:15;;;;;;;14.37;13.87;;;12.30;99.90;;;;;;5038715;28;20474;-70
2024/02/12 12:32:42;;;;;;;14.40;13.90;;;12.50;99.90;;;;;;5049721;28;20477;-70
2024/02/12 12:35:09;;;;;;;14.53;14.03;;;12.40;99.90;;;;;;5043292;28;20472;-70
2024/02/12 12:37:38;;;;;;;14.60;14.10;;;12.40;99.90;;;;;;5049829;28;20946;-70
2024/02/12 12:40:11;;;;;;;15.33;14.73;;;12.30;99.90;;;;;;5046264;28;20456;-70
2024/02/12 12:42:39;;;;;;;15.20;14.60;;;12.60;99.90;;;;;;5050313;28;20584;-70
2024/02/12 12:45:10;;;;;;;15.07;14.57;;;12.50;99.90;;;;;;5045519;28;20496;-71
2024/02/12 12:47:38;;;;;;;15.00;14.47;;;12.50;99.90;;;;;;5042864;28;20483;-72
2024/02/12 12:50:07;;;;;;;15.00;14.50;;;12.50;99.90;;;;;;5048592;28;20473;-70
2024/02/12 12:52:34;;;;;;;14.70;14.20;;;12.40;99.90;;;;;;5046473;28;20563;-70
2024/02/12 12:55:02;;;;;;;14.80;14.30;;;12.20;99.90;;;;;;5047358;28;20472;-69
2024/02/12 12:57:30;;;;;;;14.93;14.43;;;12.00;99.90;;;;;;5043614;28;20467;-70
2024/02/12 12:59:59;;;;;;;14.50;14.00;;;12.10;99.90;;;;;;5046034;28;20527;-69